Accueil
METAR-TAF:

METAR-TAF

Aéroports :

Aéroport international de Douchanbé

Douchanbé, Tadjikistan

latitude: 38-33N, longitude: 068-47E, altitude: 803 m

Observation

Le bulletin a été fait il y a 38 minutes, à 21:00 UTC
Vent calme
Température 22°C
Humidité 53%
Pression 1008 hPa
Visibilité 10 km ou plus

METAR: UTDD 032100Z 00000MPS 9999 NSC 22/12 Q1008 R09/D NOSIG RMK QFE688/0918

Heure: 02:38 (21:38 UTC)

Prévision

Le bulletin a été fait il y a 38 minutes, à 21:00 UTC
Prévision valable du 03 à 22 UTC au 04 à 10 UTC
Vent 4 kt de direction variable
Visibilité: 6000 m
Quelques nuages à une hauteur de 6000 ft, Cumulonimbus.
Nuages épars à une hauteur de 10000 ft

TAF: UTDD 032100Z 0322/0410 VRB02MPS 6000 FEW060CB SCT100

Observations et prévisions météorologiques de plus de 4000 aéroports (messages METAR et TAF).

Les stations disponibles sont représentées par des disques jaunes et rouges sur la carte.

Passer la souris dessus pour voir le nom de la station.

Cliquer dessus pour voir les observations et prévisions météorologiques.

Pour changer de carte: cliquez sur les boutons verts avec une croix noire pour zoomer, sur le bouton vert avec un tiret pour effectuer un zoom arrière, ou sur les flèches vertes pour les cartes adjacentes.


METAR-TAF: